sensor_id;sensor_type;location;lat;lon;timestamp;pressure;altitude;pressure_sealevel;temperature;humidity
39275;BME280;24980;48.874;2.332;2023-11-19T00:00:39;101057.02;;;24.00;48.65
39275;BME280;24980;48.874;2.332;2023-11-19T00:03:10;101055.59;;;23.99;48.67
39275;BME280;24980;48.874;2.332;2023-11-19T00:05:40;101050.62;;;23.98;48.68
39275;BME280;24980;48.874;2.332;2023-11-19T00:08:11;101052.88;;;23.99;48.72
39275;BME280;24980;48.874;2.332;2023-11-19T00:10:41;101053.77;;;23.98;48.76
39275;BME280;24980;48.874;2.332;2023-11-19T00:13:14;101057.28;;;23.99;48.79
39275;BME280;24980;48.874;2.332;2023-11-19T00:15:42;101052.95;;;24.00;48.80
39275;BME280;24980;48.874;2.332;2023-11-19T00:18:13;101059.05;;;24.00;48.80
39275;BME280;24980;48.874;2.332;2023-11-19T00:20:43;101060.06;;;24.01;48.81
39275;BME280;24980;48.874;2.332;2023-11-19T00:23:13;101060.22;;;24.01;48.82
39275;BME280;24980;48.874;2.332;2023-11-19T00:25:46;101050.32;;;24.01;48.83
39275;BME280;24980;48.874;2.332;2023-11-19T00:28:15;101050.74;;;24.01;48.83
39275;BME280;24980;48.874;2.332;2023-11-19T00:30:45;101050.32;;;24.01;48.84
39275;BME280;24980;48.874;2.332;2023-11-19T00:33:16;101046.30;;;24.02;48.84
39275;BME280;24980;48.874;2.332;2023-11-19T00:35:46;101044.56;;;24.01;48.85
39275;BME280;24980;48.874;2.332;2023-11-19T00:38:17;101039.48;;;24.01;48.85
39275;BME280;24980;48.874;2.332;2023-11-19T00:40:48;101038.72;;;24.01;48.87
39275;BME280;24980;48.874;2.332;2023-11-19T00:43:18;101036.52;;;24.01;48.89
39275;BME280;24980;48.874;2.332;2023-11-19T00:45:49;101036.86;;;24.01;48.90
39275;BME280;24980;48.874;2.332;2023-11-19T00:48:19;101041.10;;;24.00;48.92
39275;BME280;24980;48.874;2.332;2023-11-19T00:50:51;101037.46;;;23.99;48.94
39275;BME280;24980;48.874;2.332;2023-11-19T00:53:20;101031.54;;;23.99;48.95
39275;BME280;24980;48.874;2.332;2023-11-19T00:55:50;101030.61;;;23.99;48.96
39275;BME280;24980;48.874;2.332;2023-11-19T00:58:21;101032.85;;;23.98;48.99
39275;BME280;24980;48.874;2.332;2023-11-19T01:00:52;101037.25;;;23.98;49.01
39275;BME280;24980;48.874;2.332;2023-11-19T01:03:22;101038.53;;;23.98;49.01
39275;BME280;24980;48.874;2.332;2023-11-19T01:05:52;101038.03;;;23.97;49.04
39275;BME280;24980;48.874;2.332;2023-11-19T01:08:22;101032.95;;;23.97;49.06
39275;BME280;24980;48.874;2.332;2023-11-19T01:10:53;101032.44;;;23.97;49.09
39275;BME280;24980;48.874;2.332;2023-11-19T01:13:23;101038.27;;;23.98;49.10
39275;BME280;24980;48.874;2.332;2023-11-19T01:15:54;101041.40;;;23.98;49.12
39275;BME280;24980;48.874;2.332;2023-11-19T01:18:27;101038.69;;;23.98;49.13
39275;BME280;24980;48.874;2.332;2023-11-19T01:20:54;101035.22;;;23.98;49.17
39275;BME280;24980;48.874;2.332;2023-11-19T01:23:25;101033.23;;;23.99;49.17
39275;BME280;24980;48.874;2.332;2023-11-19T01:25:56;101042.72;;;23.99;49.19
39275;BME280;24980;48.874;2.332;2023-11-19T01:28:27;101040.55;;;23.98;49.21
39275;BME280;24980;48.874;2.332;2023-11-19T01:31:00;101035.22;;;23.98;49.22
39275;BME280;24980;48.874;2.332;2023-11-19T01:33:27;101031.24;;;23.98;49.23
39275;BME280;24980;48.874;2.332;2023-11-19T01:35:58;101037.27;;;23.97;49.25
39275;BME280;24980;48.874;2.332;2023-11-19T01:38:28;101040.91;;;23.97;49.27
39275;BME280;24980;48.874;2.332;2023-11-19T01:40:59;101044.55;;;23.97;49.29
39275;BME280;24980;48.874;2.332;2023-11-19T01:43:36;101039.56;;;23.95;49.30
39275;BME280;24980;48.874;2.332;2023-11-19T01:46:01;101046.33;;;23.96;49.31
39275;BME280;24980;48.874;2.332;2023-11-19T01:48:31;101043.08;;;23.95;49.32
39275;BME280;24980;48.874;2.332;2023-11-19T01:51:01;101044.44;;;23.94;49.34
39275;BME280;24980;48.874;2.332;2023-11-19T01:53:36;101048.59;;;23.93;49.34
39275;BME280;24980;48.874;2.332;2023-11-19T01:56:02;101052.81;;;23.94;49.35
39275;BME280;24980;48.874;2.332;2023-11-19T01:58:32;101046.31;;;23.93;49.35
39275;BME280;24980;48.874;2.332;2023-11-19T02:01:02;101047.88;;;23.91;49.38
39275;BME280;24980;48.874;2.332;2023-11-19T02:03:34;101041.61;;;23.91;49.39
39275;BME280;24980;48.874;2.332;2023-11-19T02:06:04;101034.42;;;23.90;49.40
39275;BME280;24980;48.874;2.332;2023-11-19T02:08:34;101026.64;;;23.89;49.43
39275;BME280;24980;48.874;2.332;2023-11-19T02:11:05;101025.04;;;23.89;49.45
39275;BME280;24980;48.874;2.332;2023-11-19T02:13:37;101018.05;;;23.89;49.46
39275;BME280;24980;48.874;2.332;2023-11-19T02:16:06;101022.53;;;23.88;49.47
39275;BME280;24980;48.874;2.332;2023-11-19T02:18:37;101029.01;;;23.90;49.46
39275;BME280;24980;48.874;2.332;2023-11-19T02:21:06;101024.34;;;23.91;49.46
39275;BME280;24980;48.874;2.332;2023-11-19T02:23:36;101024.52;;;23.91;49.47
39275;BME280;24980;48.874;2.332;2023-11-19T02:26:18;101020.88;;;23.90;49.52
39275;BME280;24980;48.874;2.332;2023-11-19T02:28:38;101015.62;;;23.91;49.53
39275;BME280;24980;48.874;2.332;2023-11-19T02:31:08;101014.95;;;23.91;49.53
39275;BME280;24980;48.874;2.332;2023-11-19T02:33:39;101015.97;;;23.90;49.55
39275;BME280;24980;48.874;2.332;2023-11-19T02:36:09;101015.22;;;23.89;49.57
39275;BME280;24980;48.874;2.332;2023-11-19T02:38:40;101020.30;;;23.89;49.57
39275;BME280;24980;48.874;2.332;2023-11-19T02:41:10;101020.64;;;23.89;49.58
39275;BME280;24980;48.874;2.332;2023-11-19T02:43:40;101016.74;;;23.89;49.61
39275;BME280;24980;48.874;2.332;2023-11-19T02:46:11;101015.94;;;23.88;49.63
39275;BME280;24980;48.874;2.332;2023-11-19T02:48:41;101007.64;;;23.87;49.64
39275;BME280;24980;48.874;2.332;2023-11-19T02:51:12;101014.67;;;23.87;49.65
39275;BME280;24980;48.874;2.332;2023-11-19T02:53:43;101006.72;;;23.87;49.64
39275;BME280;24980;48.874;2.332;2023-11-19T02:56:14;101012.38;;;23.88;49.64
39275;BME280;24980;48.874;2.332;2023-11-19T02:58:44;101007.73;;;23.88;49.64
39275;BME280;24980;48.874;2.332;2023-11-19T03:01:26;101003.66;;;23.88;49.63
39275;BME280;24980;48.874;2.332;2023-11-19T03:03:45;101004.60;;;23.87;49.64
39275;BME280;24980;48.874;2.332;2023-11-19T03:06:18;101003.42;;;23.87;49.64
39275;BME280;24980;48.874;2.332;2023-11-19T03:08:46;100996.95;;;23.85;49.65
39275;BME280;24980;48.874;2.332;2023-11-19T03:11:16;101002.70;;;23.85;49.67
39275;BME280;24980;48.874;2.332;2023-11-19T03:13:46;101002.11;;;23.84;49.68
39275;BME280;24980;48.874;2.332;2023-11-19T03:16:17;100999.50;;;23.84;49.68
39275;BME280;24980;48.874;2.332;2023-11-19T03:18:47;101004.58;;;23.84;49.68
39275;BME280;24980;48.874;2.332;2023-11-19T03:21:18;101006.95;;;23.84;49.69
39275;BME280;24980;48.874;2.332;2023-11-19T03:23:48;101007.45;;;23.85;49.70
39275;BME280;24980;48.874;2.332;2023-11-19T03:26:19;101004.15;;;23.84;49.70
39275;BME280;24980;48.874;2.332;2023-11-19T03:28:49;101004.84;;;23.82;49.72
39275;BME280;24980;48.874;2.332;2023-11-19T03:31:20;101005.39;;;23.82;49.74
39275;BME280;24980;48.874;2.332;2023-11-19T03:33:51;101000.56;;;23.82;49.76
39275;BME280;24980;48.874;2.332;2023-11-19T03:36:21;101006.36;;;23.83;49.76
39275;BME280;24980;48.874;2.332;2023-11-19T03:38:53;101003.66;;;23.82;49.78
39275;BME280;24980;48.874;2.332;2023-11-19T03:41:24;100999.89;;;23.82;49.80
39275;BME280;24980;48.874;2.332;2023-11-19T03:43:53;100996.89;;;23.82;49.80
39275;BME280;24980;48.874;2.332;2023-11-19T03:46:24;100990.79;;;23.82;49.81
39275;BME280;24980;48.874;2.332;2023-11-19T03:48:55;100990.70;;;23.83;49.81
39275;BME280;24980;48.874;2.332;2023-11-19T03:51:26;100991.80;;;23.83;49.81
39275;BME280;24980;48.874;2.332;2023-11-19T03:53:56;100989.64;;;23.82;49.82
39275;BME280;24980;48.874;2.332;2023-11-19T03:56:28;100992.52;;;23.81;49.83
39275;BME280;24980;48.874;2.332;2023-11-19T03:58:57;100997.19;;;23.81;49.85
39275;BME280;24980;48.874;2.332;2023-11-19T04:01:27;100997.70;;;23.81;49.88
39275;BME280;24980;48.874;2.332;2023-11-19T04:03:58;100998.62;;;23.80;49.90
39275;BME280;24980;48.874;2.332;2023-11-19T04:06:28;100998.62;;;23.80;49.91
39275;BME280;24980;48.874;2.332;2023-11-19T04:08:59;101004.14;;;23.79;49.92
39275;BME280;24980;48.874;2.332;2023-11-19T04:11:29;101006.55;;;23.78;49.94
39275;BME280;24980;48.874;2.332;2023-11-19T04:13:59;101002.33;;;23.78;49.94
39275;BME280;24980;48.874;2.332;2023-11-19T04:16:30;101004.94;;;23.79;49.92
39275;BME280;24980;48.874;2.332;2023-11-19T04:19:00;101006.84;;;23.79;49.91
39275;BME280;24980;48.874;2.332;2023-11-19T04:21:31;101003.34;;;23.78;49.91
39275;BME280;24980;48.874;2.332;2023-11-19T04:24:01;101008.16;;;23.79;49.92
39275;BME280;24980;48.874;2.332;2023-11-19T04:26:31;101013.23;;;23.78;49.91
39275;BME280;24980;48.874;2.332;2023-11-19T04:29:02;101012.90;;;23.78;49.92
39275;BME280;24980;48.874;2.332;2023-11-19T04:31:32;101004.88;;;23.77;49.93
39275;BME280;24980;48.874;2.332;2023-11-19T04:34:03;101007.83;;;23.78;49.91
39275;BME280;24980;48.874;2.332;2023-11-19T04:36:34;101006.88;;;23.78;49.91
39275;BME280;24980;48.874;2.332;2023-11-19T04:39:04;101004.69;;;23.78;49.93
39275;BME280;24980;48.874;2.332;2023-11-19T04:41:35;101002.31;;;23.79;49.95
39275;BME280;24980;48.874;2.332;2023-11-19T04:44:05;101006.00;;;23.79;49.96
39275;BME280;24980;48.874;2.332;2023-11-19T04:46:36;101010.35;;;23.79;49.96
39275;BME280;24980;48.874;2.332;2023-11-19T04:49:06;101017.00;;;23.80;49.95
39275;BME280;24980;48.874;2.332;2023-11-19T04:51:43;101020.14;;;23.79;49.97
39275;BME280;24980;48.874;2.332;2023-11-19T04:54:06;101017.97;;;23.78;49.96
39275;BME280;24980;48.874;2.332;2023-11-19T04:56:37;101019.00;;;23.77;49.97
39275;BME280;24980;48.874;2.332;2023-11-19T04:59:07;101023.06;;;23.77;49.97
39275;BME280;24980;48.874;2.332;2023-11-19T05:01:38;101030.09;;;23.77;49.97
39275;BME280;24980;48.874;2.332;2023-11-19T05:04:10;101029.25;;;23.77;49.98
39275;BME280;24980;48.874;2.332;2023-11-19T05:06:39;101026.96;;;23.76;49.97
39275;BME280;24980;48.874;2.332;2023-11-19T05:09:10;101026.50;;;23.74;50.00
39275;BME280;24980;48.874;2.332;2023-11-19T05:11:40;101026.25;;;23.74;50.04
39275;BME280;24980;48.874;2.332;2023-11-19T05:14:11;101029.56;;;23.73;50.06
39275;BME280;24980;48.874;2.332;2023-11-19T05:16:41;101028.16;;;23.73;50.08
39275;BME280;24980;48.874;2.332;2023-11-19T05:19:11;101027.99;;;23.72;50.10
39275;BME280;24980;48.874;2.332;2023-11-19T05:21:42;101020.64;;;23.71;50.12
39275;BME280;24980;48.874;2.332;2023-11-19T05:24:12;101023.77;;;23.72;50.12
39275;BME280;24980;48.874;2.332;2023-11-19T05:26:42;101028.68;;;23.71;50.14
39275;BME280;24980;48.874;2.332;2023-11-19T05:29:13;101032.48;;;23.72;50.12
39275;BME280;24980;48.874;2.332;2023-11-19T05:31:43;101036.67;;;23.73;50.12
39275;BME280;24980;48.874;2.332;2023-11-19T05:34:14;101041.91;;;23.74;50.08
39275;BME280;24980;48.874;2.332;2023-11-19T05:36:47;101048.67;;;23.75;50.08
39275;BME280;24980;48.874;2.332;2023-11-19T05:39:14;101045.70;;;23.75;50.07
39275;BME280;24980;48.874;2.332;2023-11-19T05:41:44;101043.84;;;23.76;50.06
39275;BME280;24980;48.874;2.332;2023-11-19T05:44:15;101042.23;;;23.76;50.06
39275;BME280;24980;48.874;2.332;2023-11-19T05:46:46;101042.91;;;23.75;50.06
39275;BME280;24980;48.874;2.332;2023-11-19T05:49:16;101044.44;;;23.75;50.06
39275;BME280;24980;48.874;2.332;2023-11-19T05:51:47;101048.93;;;23.75;50.07
39275;BME280;24980;48.874;2.332;2023-11-19T05:54:17;101048.84;;;23.75;50.06
39275;BME280;24980;48.874;2.332;2023-11-19T05:56:48;101045.58;;;23.76;50.04
39275;BME280;24980;48.874;2.332;2023-11-19T05:59:19;101046.05;;;23.76;50.04
39275;BME280;24980;48.874;2.332;2023-11-19T06:01:49;101047.65;;;23.76;50.05
39275;BME280;24980;48.874;2.332;2023-11-19T06:04:20;101054.09;;;23.74;50.07
39275;BME280;24980;48.874;2.332;2023-11-19T06:06:51;101054.19;;;23.73;50.09
39275;BME280;24980;48.874;2.332;2023-11-19T06:09:22;101059.73;;;23.72;50.11
39275;BME280;24980;48.874;2.332;2023-11-19T06:11:53;101058.80;;;23.72;50.13
39275;BME280;24980;48.874;2.332;2023-11-19T06:14:23;101063.54;;;23.72;50.14
39275;BME280;24980;48.874;2.332;2023-11-19T06:16:53;101062.86;;;23.73;50.13
39275;BME280;24980;48.874;2.332;2023-11-19T06:19:24;101068.06;;;23.73;50.13
39275;BME280;24980;48.874;2.332;2023-11-19T06:21:54;101075.25;;;23.74;50.13
39275;BME280;24980;48.874;2.332;2023-11-19T06:24:27;101074.73;;;23.75;50.13
39275;BME280;24980;48.874;2.332;2023-11-19T06:26:56;101082.09;;;23.76;50.13
39275;BME280;24980;48.874;2.332;2023-11-19T06:29:26;101080.03;;;23.77;50.12
39275;BME280;24980;48.874;2.332;2023-11-19T06:31:57;101085.61;;;23.78;50.13
39275;BME280;24980;48.874;2.332;2023-11-19T06:34:27;101082.55;;;23.79;50.13
39275;BME280;24980;48.874;2.332;2023-11-19T06:36:57;101077.52;;;23.79;50.12
39275;BME280;24980;48.874;2.332;2023-11-19T06:39:29;101077.69;;;23.79;50.13
39275;BME280;24980;48.874;2.332;2023-11-19T06:41:58;101079.03;;;23.81;50.11
39275;BME280;24980;48.874;2.332;2023-11-19T06:44:28;101084.10;;;23.82;50.10
39275;BME280;24980;48.874;2.332;2023-11-19T06:46:58;101086.39;;;23.82;50.11
39275;BME280;24980;48.874;2.332;2023-11-19T06:49:28;101082.03;;;23.82;50.13
39275;BME280;24980;48.874;2.332;2023-11-19T06:51:59;101088.54;;;23.85;50.13
39275;BME280;24980;48.874;2.332;2023-11-19T06:54:29;101088.95;;;23.85;50.15
39275;BME280;24980;48.874;2.332;2023-11-19T06:56:59;101084.52;;;23.86;50.15
39275;BME280;24980;48.874;2.332;2023-11-19T06:59:30;101086.92;;;23.85;50.16
39275;BME280;24980;48.874;2.332;2023-11-19T07:02:00;101094.20;;;23.85;50.17
39275;BME280;24980;48.874;2.332;2023-11-19T07:04:31;101102.59;;;23.85;50.17
39275;BME280;24980;48.874;2.332;2023-11-19T07:07:01;101095.44;;;23.86;50.15
39275;BME280;24980;48.874;2.332;2023-11-19T07:09:32;101097.97;;;23.87;50.13
39275;BME280;24980;48.874;2.332;2023-11-19T07:12:02;101101.18;;;23.88;50.11
39275;BME280;24980;48.874;2.332;2023-11-19T07:14:33;101100.16;;;23.89;50.10
39275;BME280;24980;48.874;2.332;2023-11-19T07:17:05;101110.11;;;23.89;50.10
39275;BME280;24980;48.874;2.332;2023-11-19T07:19:34;101103.00;;;23.90;50.08
39275;BME280;24980;48.874;2.332;2023-11-19T07:22:04;101101.62;;;23.91;50.05
39275;BME280;24980;48.874;2.332;2023-11-19T07:24:35;101105.66;;;23.92;50.04
39275;BME280;24980;48.874;2.332;2023-11-19T07:27:05;101096.09;;;23.93;50.02
39275;BME280;24980;48.874;2.332;2023-11-19T07:29:35;101089.98;;;23.93;50.01
39275;BME280;24980;48.874;2.332;2023-11-19T07:32:06;101086.52;;;23.93;50.00
39275;BME280;24980;48.874;2.332;2023-11-19T07:34:36;101102.34;;;23.93;50.00
39275;BME280;24980;48.874;2.332;2023-11-19T07:37:06;101100.06;;;23.93;49.99
39275;BME280;24980;48.874;2.332;2023-11-19T07:39:37;101103.36;;;23.94;49.96
39275;BME280;24980;48.874;2.332;2023-11-19T07:42:07;101107.17;;;23.93;49.96
39275;BME280;24980;48.874;2.332;2023-11-19T07:44:37;101103.95;;;23.93;49.96
39275;BME280;24980;48.874;2.332;2023-11-19T07:47:07;101098.80;;;23.92;49.97
39275;BME280;24980;48.874;2.332;2023-11-19T07:49:37;101110.22;;;23.92;49.97
39275;BME280;24980;48.874;2.332;2023-11-19T07:52:08;101117.34;;;23.92;49.98
39275;BME280;24980;48.874;2.332;2023-11-19T07:54:38;101120.20;;;23.93;49.98
39275;BME280;24980;48.874;2.332;2023-11-19T07:57:08;101128.08;;;23.94;49.99
39275;BME280;24980;48.874;2.332;2023-11-19T07:59:38;101117.58;;;23.95;49.99
39275;BME280;24980;48.874;2.332;2023-11-19T08:02:09;101115.50;;;23.96;49.98
39275;BME280;24980;48.874;2.332;2023-11-19T08:04:39;101120.40;;;23.98;49.97
39275;BME280;24980;48.874;2.332;2023-11-19T08:07:09;101122.34;;;23.98;49.96
39275;BME280;24980;48.874;2.332;2023-11-19T08:09:39;101115.31;;;23.98;49.96
39275;BME280;24980;48.874;2.332;2023-11-19T08:12:12;101120.06;;;23.98;49.97
39275;BME280;24980;48.874;2.332;2023-11-19T08:14:41;101123.95;;;23.98;49.97
39275;BME280;24980;48.874;2.332;2023-11-19T08:17:11;101119.89;;;23.98;49.97
39275;BME280;24980;48.874;2.332;2023-11-19T08:19:41;101121.83;;;23.98;49.96
39275;BME280;24980;48.874;2.332;2023-11-19T08:22:12;101124.38;;;23.98;49.96
39275;BME280;24980;48.874;2.332;2023-11-19T08:24:43;101125.35;;;23.99;49.94
39275;BME280;24980;48.874;2.332;2023-11-19T08:27:13;101129.16;;;23.99;49.93
39275;BME280;24980;48.874;2.332;2023-11-19T08:29:45;101124.54;;;23.98;49.92
39275;BME280;24980;48.874;2.332;2023-11-19T08:32:14;101127.93;;;23.98;49.92
39275;BME280;24980;48.874;2.332;2023-11-19T08:34:45;101123.02;;;23.97;49.93
39275;BME280;24980;48.874;2.332;2023-11-19T08:37:18;101128.10;;;23.97;49.95
39275;BME280;24980;48.874;2.332;2023-11-19T08:39:45;101127.25;;;23.98;49.95
39275;BME280;24980;48.874;2.332;2023-11-19T08:42:19;101123.11;;;23.98;49.96
39275;BME280;24980;48.874;2.332;2023-11-19T08:44:50;101128.15;;;23.99;49.95
39275;BME280;24980;48.874;2.332;2023-11-19T08:47:17;101133.31;;;23.99;49.96
39275;BME280;24980;48.874;2.332;2023-11-19T08:49:48;101139.48;;;24.00;49.95
39275;BME280;24980;48.874;2.332;2023-11-19T08:52:18;101147.01;;;24.01;49.96
39275;BME280;24980;48.874;2.332;2023-11-19T08:54:49;101146.08;;;24.01;49.94
39275;BME280;24980;48.874;2.332;2023-11-19T08:57:19;101155.14;;;24.01;49.97
39275;BME280;24980;48.874;2.332;2023-11-19T08:59:54;101158.23;;;24.02;49.99
39275;BME280;24980;48.874;2.332;2023-11-19T09:02:20;101159.50;;;24.03;49.99
39275;BME280;24980;48.874;2.332;2023-11-19T09:04:50;101163.73;;;24.04;50.00
39275;BME280;24980;48.874;2.332;2023-11-19T09:07:21;101179.39;;;24.04;50.03
39275;BME280;24980;48.874;2.332;2023-11-19T09:09:52;101183.54;;;24.03;50.04
39275;BME280;24980;48.874;2.332;2023-11-19T09:12:23;101183.70;;;24.04;50.04
39275;BME280;24980;48.874;2.332;2023-11-19T09:14:52;101179.05;;;24.03;50.04
39275;BME280;24980;48.874;2.332;2023-11-19T09:17:23;101183.03;;;24.04;50.02
39275;BME280;24980;48.874;2.332;2023-11-19T09:19:54;101184.48;;;24.03;50.02
39275;BME280;24980;48.874;2.332;2023-11-19T09:22:24;101185.84;;;24.02;50.00
39275;BME280;24980;48.874;2.332;2023-11-19T09:24:54;101190.48;;;24.03;49.99
39275;BME280;24980;48.874;2.332;2023-11-19T09:27:25;101188.62;;;24.03;49.98
39275;BME280;24980;48.874;2.332;2023-11-19T09:29:55;101193.88;;;24.03;49.98
39275;BME280;24980;48.874;2.332;2023-11-19T09:32:26;101184.39;;;24.02;49.99
39275;BME280;24980;48.874;2.332;2023-11-19T09:34:56;101177.88;;;24.03;50.00
39275;BME280;24980;48.874;2.332;2023-11-19T09:37:28;101176.77;;;24.03;50.00
39275;BME280;24980;48.874;2.332;2023-11-19T09:39:58;101176.59;;;24.03;49.99
39275;BME280;24980;48.874;2.332;2023-11-19T09:42:28;101171.17;;;24.04;49.98
39275;BME280;24980;48.874;2.332;2023-11-19T09:44:59;101169.61;;;24.05;49.97
39275;BME280;24980;48.874;2.332;2023-11-19T09:47:29;101167.91;;;24.05;49.96
39275;BME280;24980;48.874;2.332;2023-11-19T09:50:01;101166.56;;;24.05;49.96
39275;BME280;24980;48.874;2.332;2023-11-19T09:52:31;101155.05;;;24.05;49.97
39275;BME280;24980;48.874;2.332;2023-11-19T09:55:00;101160.61;;;24.08;49.96
39275;BME280;24980;48.874;2.332;2023-11-19T09:57:32;101166.23;;;24.12;49.90
39275;BME280;24980;48.874;2.332;2023-11-19T10:00:01;101162.00;;;24.18;49.85
39275;BME280;24980;48.874;2.332;2023-11-19T10:02:42;101171.09;;;24.20;49.82
39275;BME280;24980;48.874;2.332;2023-11-19T10:05:04;101163.22;;;24.20;49.80
39275;BME280;24980;48.874;2.332;2023-11-19T10:07:33;101169.31;;;24.20;49.80
39275;BME280;24980;48.874;2.332;2023-11-19T10:10:03;101167.16;;;24.23;49.78
39275;BME280;24980;48.874;2.332;2023-11-19T10:12:34;101165.07;;;24.25;49.76
39275;BME280;24980;48.874;2.332;2023-11-19T10:15:06;101166.08;;;24.26;49.74
39275;BME280;24980;48.874;2.332;2023-11-19T10:17:35;101162.00;;;24.27;49.71
39275;BME280;24980;48.874;2.332;2023-11-19T10:20:06;101163.31;;;24.28;49.69
39275;BME280;24980;48.874;2.332;2023-11-19T10:22:39;101171.78;;;24.29;49.68
39275;BME280;24980;48.874;2.332;2023-11-19T10:25:24;101155.26;;;24.29;49.68
39275;BME280;24980;48.874;2.332;2023-11-19T10:27:36;101156.20;;;24.28;49.68
39275;BME280;24980;48.874;2.332;2023-11-19T10:30:09;101158.41;;;24.28;49.69
39275;BME280;24980;48.874;2.332;2023-11-19T10:32:37;101153.66;;;24.29;49.69
39275;BME280;24980;48.874;2.332;2023-11-19T10:35:08;101156.44;;;24.30;49.69
39275;BME280;24980;48.874;2.332;2023-11-19T10:37:38;101154.80;;;24.31;49.70
39275;BME280;24980;48.874;2.332;2023-11-19T10:40:09;101159.20;;;24.31;49.70
39275;BME280;24980;48.874;2.332;2023-11-19T10:42:39;101153.95;;;24.31;49.71
39275;BME280;24980;48.874;2.332;2023-11-19T10:45:23;101146.11;;;24.30;49.72
39275;BME280;24980;48.874;2.332;2023-11-19T10:47:41;101160.98;;;24.31;49.72
39275;BME280;24980;48.874;2.332;2023-11-19T10:50:11;101151.83;;;24.31;49.73
39275;BME280;24980;48.874;2.332;2023-11-19T10:52:41;101153.56;;;24.30;49.74
39275;BME280;24980;48.874;2.332;2023-11-19T10:55:15;101154.16;;;24.30;49.76
39275;BME280;24980;48.874;2.332;2023-11-19T10:57:43;101154.59;;;24.29;49.77
39275;BME280;24980;48.874;2.332;2023-11-19T11:00:17;101158.07;;;24.28;49.78
39275;BME280;24980;48.874;2.332;2023-11-19T11:02:45;101148.91;;;24.29;49.78
39275;BME280;24980;48.874;2.332;2023-11-19T11:05:14;101145.27;;;24.29;49.78
39275;BME280;24980;48.874;2.332;2023-11-19T11:07:44;101146.55;;;24.28;49.80
39275;BME280;24980;48.874;2.332;2023-11-19T11:10:16;101153.20;;;24.25;49.85
39275;BME280;24980;48.874;2.332;2023-11-19T11:12:46;101148.47;;;24.24;49.86
39275;BME280;24980;48.874;2.332;2023-11-19T11:15:18;101148.09;;;24.23;49.87
39275;BME280;24980;48.874;2.332;2023-11-19T11:17:46;101148.02;;;24.22;49.88
39275;BME280;24980;48.874;2.332;2023-11-19T11:20:16;101161.22;;;24.23;49.90
39275;BME280;24980;48.874;2.332;2023-11-19T11:22:57;101141.58;;;24.22;49.93
39275;BME280;24980;48.874;2.332;2023-11-19T11:25:41;101142.66;;;24.24;49.96
39275;BME280;24980;48.874;2.332;2023-11-19T11:30:46;101132.80;;;24.24;49.93
39275;BME280;24980;48.874;2.332;2023-11-19T11:32:54;101145.51;;;24.24;49.93
39275;BME280;24980;48.874;2.332;2023-11-19T11:35:31;101131.36;;;24.25;49.90
39275;BME280;24980;48.874;2.332;2023-11-19T11:37:56;101129.33;;;24.24;49.88
39275;BME280;24980;48.874;2.332;2023-11-19T11:40:19;101140.12;;;24.23;49.87
39275;BME280;24980;48.874;2.332;2023-11-19T11:42:50;101135.56;;;24.22;49.87
39275;BME280;24980;48.874;2.332;2023-11-19T11:45:37;101138.45;;;24.21;49.84
39275;BME280;24980;48.874;2.332;2023-11-19T11:50:20;101138.66;;;24.19;49.80
39275;BME280;24980;48.874;2.332;2023-11-19T11:55:24;101129.34;;;24.14;49.75
39275;BME280;24980;48.874;2.332;2023-11-19T11:57:52;101128.56;;;24.16;49.71
39275;BME280;24980;48.874;2.332;2023-11-19T12:00:29;101134.33;;;24.15;49.68
39275;BME280;24980;48.874;2.332;2023-11-19T12:02:56;101132.86;;;24.13;49.64
39275;BME280;24980;48.874;2.332;2023-11-19T12:05:24;101132.11;;;24.11;49.60
39275;BME280;24980;48.874;2.332;2023-11-19T12:08:01;101137.88;;;24.08;49.57
39275;BME280;24980;48.874;2.332;2023-11-19T12:10:29;101135.12;;;24.07;49.54
39275;BME280;24980;48.874;2.332;2023-11-19T12:12:58;101132.95;;;24.05;49.51
39275;BME280;24980;48.874;2.332;2023-11-19T12:15:24;101139.17;;;24.03;49.46
39275;BME280;24980;48.874;2.332;2023-11-19T12:17:55;101141.08;;;24.01;49.45
39275;BME280;24980;48.874;2.332;2023-11-19T12:20:28;101133.73;;;23.99;49.44
39275;BME280;24980;48.874;2.332;2023-11-19T12:22:55;101126.24;;;23.97;49.41
39275;BME280;24980;48.874;2.332;2023-11-19T12:25:26;101126.84;;;23.97;49.39
39275;BME280;24980;48.874;2.332;2023-11-19T12:27:56;101127.69;;;23.96;49.37
39275;BME280;24980;48.874;2.332;2023-11-19T12:30:27;101130.70;;;23.94;49.33
39275;BME280;24980;48.874;2.332;2023-11-19T12:32:58;101118.34;;;23.93;49.29
39275;BME280;24980;48.874;2.332;2023-11-19T12:35:30;101121.73;;;23.92;49.26
39275;BME280;24980;48.874;2.332;2023-11-19T12:37:59;101123.47;;;23.91;49.25
39275;BME280;24980;48.874;2.332;2023-11-19T12:40:29;101115.10;;;23.90;49.21
39275;BME280;24980;48.874;2.332;2023-11-19T12:43:00;101119.97;;;23.89;49.19
39275;BME280;24980;48.874;2.332;2023-11-19T12:45:35;101120.56;;;23.87;49.17
39275;BME280;24980;48.874;2.332;2023-11-19T12:48:09;101125.82;;;23.86;49.14
39275;BME280;24980;48.874;2.332;2023-11-19T12:50:54;101116.98;;;23.85;49.10
39275;BME280;24980;48.874;2.332;2023-11-19T12:53:00;101110.81;;;23.83;49.07
39275;BME280;24980;48.874;2.332;2023-11-19T12:55:31;101117.41;;;23.83;49.04
39275;BME280;24980;48.874;2.332;2023-11-19T12:58:02;101121.73;;;23.83;48.99
39275;BME280;24980;48.874;2.332;2023-11-19T13:00:39;101118.73;;;23.82;48.97
39275;BME280;24980;48.874;2.332;2023-11-19T13:03:03;101120.34;;;23.79;48.94
39275;BME280;24980;48.874;2.332;2023-11-19T13:05:34;101120.98;;;23.79;48.91
39275;BME280;24980;48.874;2.332;2023-11-19T13:08:08;101124.70;;;23.79;48.89
39275;BME280;24980;48.874;2.332;2023-11-19T13:10:52;101116.16;;;23.77;48.84
39275;BME280;24980;48.874;2.332;2023-11-19T13:13:08;101122.64;;;23.76;48.83